Crystal Island — 3EZJ3 — position and weather

sailwx.info

Track history (hours):
 
Tides and Currents Weather Stations Pressure Air Temp Water Temp Dewpoint Dewpoint Depression Visibility Wind Speed Wind Dir Waves Ship Positions

Crystal Island

Last reported at 2015-Mar-05 15:32 UTC. Time now 2015-Mar-05 16:10 UTC.
Position N 35°25' E 139°50'.

Length 169 m; draft 5.4 m.

Type: Cargo ship. MMSI: 372562000.

Date/timePositionNaut miles runAvg speedWind from/ knotsBaromVisibWave heightAir tempDewpointWater temp
2015-Mar-05 15:32N 35°25' E 139°50'0 0.0
2015-Mar-05 14:29N 35°25' E 139°50'0 0.1
2015-Mar-05 13:29N 35°25' E 139°50'0 0.0
2015-Mar-05 12:29N 35°25' E 139°50'0 0.0
2015-Mar-05 11:32N 35°25' E 139°50'0 0.1
2015-Mar-05 10:32N 35°25' E 139°49'0 0.1
2015-Mar-05 09:29N 35°25' E 139°50'0 0.1
2015-Mar-05 08:32N 35°25' E 139°50'0 0.0
2015-Mar-05 07:32N 35°25' E 139°50'0 0.0
2015-Mar-05 06:29N 35°25' E 139°50'0 0.1
2015-Mar-05 05:32N 35°25' E 139°50'0 0.1
2015-Mar-05 04:29N 35°25' E 139°50'0 0.0
2015-Mar-05 03:26N 35°25' E 139°50'0 0.0
2015-Mar-05 02:23N 35°25' E 139°50'0 0.0
2015-Mar-05 01:14N 35°25' E 139°50'0 0.0
2015-Mar-05 00:23N 35°25' E 139°50'0 0.0
2015-Mar-04 23:29N 35°25' E 139°50'0 0.0
2015-Mar-04 17:29N 35°25' E 139°50'0 0.1
2015-Mar-04 16:32N 35°25' E 139°50'0 0.0
2015-Mar-04 15:27N 35°25' E 139°50'0 0.1
2015-Mar-04 14:32N 35°25' E 139°50'0 0.1
2015-Mar-04 13:30N 35°25' E 139°50'0 0.0
2015-Mar-04 12:33N 35°25' E 139°50'0 0.0
2015-Mar-04 11:30N 35°25' E 139°50'0 0.1
2015-Mar-04 10:31N 35°25' E 139°50'0 0.1
2015-Mar-04 09:30N 35°25' E 139°50'0 0.1
2015-Mar-04 08:30N 35°25' E 139°50'0 0.0
2015-Mar-04 07:29N 35°25' E 139°50'0 0.1
2015-Mar-04 06:32N 35°25' E 139°50'0 0.0
2015-Mar-04 05:33N 35°25' E 139°50'0 0.2
2015-Mar-04 04:32N 35°25' E 139°50'0 0.1
2015-Mar-04 03:33N 35°25' E 139°50'0 0.1
2015-Mar-04 02:34N 35°25' E 139°50'0 0.0
2015-Mar-04 01:33N 35°25' E 139°50'0 0.0
2015-Mar-04 00:18N 35°25' E 139°50'0 0.0
2015-Mar-03 23:30N 35°25' E 139°50'0 0.0
2015-Mar-03 22:09N 35°25' E 139°50'0 0.0
2015-Mar-03 21:27N 35°25' E 139°50'0 0.0
2015-Mar-03 20:30N 35°25' E 139°50'0 0.1
2015-Mar-03 19:33N 35°25' E 139°50'0 0.0
2015-Mar-03 18:27N 35°25' E 139°50'0 0.0
2015-Mar-03 17:33N 35°25' E 139°50'0 0.0
2015-Mar-03 16:24N 35°25' E 139°50'0 0.1
2015-Mar-03 15:33N 35°25' E 139°50'0 0.0
2015-Mar-03 14:30N 35°25' E 139°50'0 0.0
2015-Mar-03 13:30N 35°25' E 139°50'0 0.0
2015-Mar-03 12:30N 35°25' E 139°50'0 0.0
2015-Mar-03 11:34N 35°25' E 139°50'0 0.0
2015-Mar-03 10:27N 35°25' E 139°50'0 0.0
2015-Mar-03 09:27N 35°25' E 139°50'0 0.0
2015-Mar-03 08:18N 35°25' E 139°50'0 0.0
2015-Mar-03 07:33N 35°25' E 139°50'0 0.0
2015-Mar-03 06:33N 35°25' E 139°50'0 0.0
2015-Mar-03 04:09N 35°25' E 139°50'0 0.0
2015-Mar-03 03:09N 35°25' E 139°50'0 0.0
2015-Mar-03 02:33N 35°25' E 139°50'0 0.0
2015-Mar-03 01:33N 35°25' E 139°50'0 0.1
2015-Mar-03 00:33N 35°25' E 139°49'8 8.0
2015-Mar-02 23:33N 35°18' E 139°45'1110.5
2015-Mar-02 22:33N 35°07' E 139°46'9 8.2
2015-Mar-02 21:30N 35°00' E 139°40'  
2015-Feb-25 18:33N 33°50' E 134°59'1312.6
2015-Feb-25 17:33N 34°03' E 134°57'1111.6
2015-Feb-25 16:34N 34°14' E 134°58'1111.1
2015-Feb-25 15:33N 34°25' E 135°00'9 9.5
2015-Feb-25 14:33N 34°34' E 135°05'10 9.8
2015-Feb-25 13:33N 34°35' E 134°53'  
Track history (hours):
 
Tides and Currents Weather Stations Pressure Air Temp Water Temp Dewpoint Dewpoint Depression Visibility Wind Speed Wind Dir Waves Ship Positions

Crystal Island

Last reported at 2015-Mar-05 15:32 UTC. Time now 2015-Mar-05 16:10 UTC.
Position N 35°25' E 139°50'.

Length 169 m; draft 5.4 m.

Type: Cargo ship. MMSI: 372562000.

Date/timePositionNaut miles runAvg speedWind from/ knotsBaromVisibWave heightAir tempDewpointWater temp
2015-Mar-05 15:32N 35°25' E 139°50'0 0.0
2015-Mar-05 14:29N 35°25' E 139°50'0 0.1
2015-Mar-05 13:29N 35°25' E 139°50'0 0.0
2015-Mar-05 12:29N 35°25' E 139°50'0 0.0
2015-Mar-05 11:32N 35°25' E 139°50'0 0.1
2015-Mar-05 10:32N 35°25' E 139°49'0 0.1
2015-Mar-05 09:29N 35°25' E 139°50'0 0.1
2015-Mar-05 08:32N 35°25' E 139°50'0 0.0
2015-Mar-05 07:32N 35°25' E 139°50'0 0.0
2015-Mar-05 06:29N 35°25' E 139°50'0 0.1
2015-Mar-05 05:32N 35°25' E 139°50'0 0.1
2015-Mar-05 04:29N 35°25' E 139°50'0 0.0
2015-Mar-05 03:26N 35°25' E 139°50'0 0.0
2015-Mar-05 02:23N 35°25' E 139°50'0 0.0
2015-Mar-05 01:14N 35°25' E 139°50'0 0.0
2015-Mar-05 00:23N 35°25' E 139°50'0 0.0
2015-Mar-04 23:29N 35°25' E 139°50'0 0.0
2015-Mar-04 17:29N 35°25' E 139°50'0 0.1
2015-Mar-04 16:32N 35°25' E 139°50'0 0.0
2015-Mar-04 15:27N 35°25' E 139°50'0 0.1
2015-Mar-04 14:32N 35°25' E 139°50'0 0.1
2015-Mar-04 13:30N 35°25' E 139°50'0 0.0
2015-Mar-04 12:33N 35°25' E 139°50'0 0.0
2015-Mar-04 11:30N 35°25' E 139°50'0 0.1
2015-Mar-04 10:31N 35°25' E 139°50'0 0.1
2015-Mar-04 09:30N 35°25' E 139°50'0 0.1
2015-Mar-04 08:30N 35°25' E 139°50'0 0.0
2015-Mar-04 07:29N 35°25' E 139°50'0 0.1
2015-Mar-04 06:32N 35°25' E 139°50'0 0.0
2015-Mar-04 05:33N 35°25' E 139°50'0 0.2
2015-Mar-04 04:32N 35°25' E 139°50'0 0.1
2015-Mar-04 03:33N 35°25' E 139°50'0 0.1
2015-Mar-04 02:34N 35°25' E 139°50'0 0.0
2015-Mar-04 01:33N 35°25' E 139°50'0 0.0
2015-Mar-04 00:18N 35°25' E 139°50'0 0.0
2015-Mar-03 23:30N 35°25' E 139°50'0 0.0
2015-Mar-03 22:09N 35°25' E 139°50'0 0.0
2015-Mar-03 21:27N 35°25' E 139°50'0 0.0
2015-Mar-03 20:30N 35°25' E 139°50'0 0.1
2015-Mar-03 19:33N 35°25' E 139°50'0 0.0
2015-Mar-03 18:27N 35°25' E 139°50'0 0.0
2015-Mar-03 17:33N 35°25' E 139°50'0 0.0
2015-Mar-03 16:24N 35°25' E 139°50'0 0.1
2015-Mar-03 15:33N 35°25' E 139°50'0 0.0
2015-Mar-03 14:30N 35°25' E 139°50'0 0.0
2015-Mar-03 13:30N 35°25' E 139°50'0 0.0
2015-Mar-03 12:30N 35°25' E 139°50'0 0.0
2015-Mar-03 11:34N 35°25' E 139°50'0 0.0
2015-Mar-03 10:27N 35°25' E 139°50'0 0.0
2015-Mar-03 09:27N 35°25' E 139°50'0 0.0
2015-Mar-03 08:18N 35°25' E 139°50'0 0.0
2015-Mar-03 07:33N 35°25' E 139°50'0 0.0
2015-Mar-03 06:33N 35°25' E 139°50'0 0.0
2015-Mar-03 04:09N 35°25' E 139°50'0 0.0
2015-Mar-03 03:09N 35°25' E 139°50'0 0.0
2015-Mar-03 02:33N 35°25' E 139°50'0 0.0
2015-Mar-03 01:33N 35°25' E 139°50'0 0.1
2015-Mar-03 00:33N 35°25' E 139°49'8 8.0
2015-Mar-02 23:33N 35°18' E 139°45'1110.5
2015-Mar-02 22:33N 35°07' E 139°46'9 8.2
2015-Mar-02 21:30N 35°00' E 139°40'  
2015-Feb-25 18:33N 33°50' E 134°59'1312.6
2015-Feb-25 17:33N 34°03' E 134°57'1111.6
2015-Feb-25 16:34N 34°14' E 134°58'1111.1
2015-Feb-25 15:33N 34°25' E 135°00'9 9.5
2015-Feb-25 14:33N 34°34' E 135°05'10 9.8
2015-Feb-25 13:33N 34°35' E 134°53'  

Dump ship's entire track history